Time;durP1;ratioP1;P1;durP2;ratioP2;P2;SDS_P1;SDS_P2;PMS_P1;PMS_P2;Temp;Humidity;BMP_temperature;BMP_pressure;BME280_temperature;BME280_humidity;BME280_pressure;Samples;Min_cycle;Max_cycle;Signal;HPM_P1;HPM_P2
2021/07/04 00:00:31;;;;;;;21.88;19.45;;;18.50;99.90;;;;;;4990993;28;20070;-46
2021/07/04 00:02:59;;;;;;;24.33;20.63;;;18.50;99.90;;;;;;4990937;28;20132;-45
2021/07/04 00:05:47;;;;;;;22.48;20.17;;;18.50;99.90;;;;;;4990821;28;20050;-48
2021/07/04 00:08:23;;;;;;;22.88;20.58;;;18.50;99.90;;;;;;4990267;28;20137;-46
2021/07/04 00:10:54;;;;;;;24.13;21.92;;;18.50;99.90;;;;;;4990198;28;20495;-45
2021/07/04 00:13:21;;;;;;;24.55;22.02;;;18.50;99.90;;;;;;4990622;28;20054;-45
2021/07/04 00:15:48;;;;;;;25.45;22.85;;;18.40;99.90;;;;;;4991172;28;20078;-45
2021/07/04 00:18:20;;;;;;;24.25;21.98;;;18.40;99.90;;;;;;4990099;28;20054;-45
2021/07/04 00:20:47;;;;;;;;;;;18.40;99.90;;;;;;4990230;28;20054;-48
2021/07/04 00:23:16;;;;;;;24.95;22.45;;;18.40;99.90;;;;;;4990238;28;20395;-48
2021/07/04 00:25:44;;;;;;;30.05;26.88;;;18.30;99.90;;;;;;4990087;28;20046;-47
2021/07/04 00:28:11;;;;;;;25.38;22.88;;;18.30;99.90;;;;;;5010668;28;20103;-47
2021/07/04 00:30:38;;;;;;;27.15;24.25;;;18.30;99.90;;;;;;4989926;28;20058;-47
2021/07/04 00:33:05;;;;;;;29.55;26.52;;;18.30;99.90;;;;;;4990087;28;20054;-47
2021/07/04 00:35:35;;;;;;;25.58;22.92;;;18.20;99.90;;;;;;4990414;28;20058;-46
2021/07/04 00:38:02;;;;;;;28.17;25.10;;;18.20;99.90;;;;;;4994463;28;20042;-48
2021/07/04 00:40:29;;;;;;;28.65;25.73;;;18.20;99.90;;;;;;4989283;28;20454;-47
2021/07/04 00:42:58;;;;;;;27.55;24.65;;;18.20;99.90;;;;;;4990036;28;20423;-48
2021/07/04 00:45:27;;;;;;;26.98;24.27;;;18.10;99.90;;;;;;4990290;28;20108;-46
2021/07/04 00:47:57;;;;;;;27.33;24.67;;;18.10;99.90;;;;;;4988718;28;20100;-46
2021/07/04 00:50:28;;;;;;;28.75;25.85;;;18.10;99.90;;;;;;4988616;28;20046;-46
2021/07/04 00:52:57;;;;;;;;;;;18.10;99.90;;;;;;4975363;28;20047;-45
2021/07/04 00:55:30;;;;;;;29.70;26.80;;;18.10;99.90;;;;;;4976534;28;20312;-46
2021/07/04 00:58:04;;;;;;;27.83;25.10;;;18.10;99.90;;;;;;4953746;28;20086;-48
2021/07/04 01:00:34;;;;;;;30.55;27.52;;;18.10;99.90;;;;;;4953803;28;20054;-45
2021/07/04 01:03:04;;;;;;;26.35;23.80;;;18.00;99.90;;;;;;4970354;28;20463;-47
2021/07/04 01:05:36;;;;;;;30.67;27.48;;;18.00;99.90;;;;;;4971025;28;20070;-44
2021/07/04 01:08:06;;;;;;;28.65;25.83;;;18.00;99.90;;;;;;4960519;28;20061;-46
2021/07/04 01:10:38;;;;;;;29.70;26.57;;;18.00;99.90;;;;;;4989431;28;20140;-46
2021/07/04 01:13:11;;;;;;;29.38;26.35;;;18.00;99.90;;;;;;4955416;28;20304;-47
2021/07/04 01:15:43;;;;;;;;;;;18.00;99.90;;;;;;4954602;28;20080;-45
2021/07/04 01:18:12;;;;;;;29.85;26.65;;;18.00;99.90;;;;;;4989582;28;20445;-45
2021/07/04 01:20:47;;;;;;;26.75;24.05;;;18.00;99.90;;;;;;4971813;28;20093;-45
2021/07/04 01:23:16;;;;;;;28.45;25.42;;;17.90;99.90;;;;;;4969591;28;20164;-45
2021/07/04 01:25:53;;;;;;;31.70;28.30;;;17.90;99.90;;;;;;4952779;28;20462;-48
2021/07/04 01:28:24;;;;;;;28.75;25.95;;;17.90;99.90;;;;;;4969812;28;20169;-44
2021/07/04 01:30:58;;;;;;;32.17;28.90;;;17.90;99.90;;;;;;4970592;28;20142;-45
2021/07/04 01:33:27;;;;;;;27.73;25.13;;;17.90;99.90;;;;;;4967974;28;20054;-46
2021/07/04 01:35:57;;;;;;;29.70;26.48;;;17.90;99.90;;;;;;4970313;28;20051;-45
2021/07/04 01:38:28;;;;;;;;;;;17.90;99.90;;;;;;4953535;28;20047;-45
2021/07/04 01:41:00;;;;;;;30.70;27.42;;;17.90;99.90;;;;;;4968372;28;19926;-46
2021/07/04 01:43:27;;;;;;;29.52;26.27;;;17.90;99.90;;;;;;4968790;28;20051;-46
2021/07/04 01:45:56;;;;;;;27.65;24.80;;;17.90;99.90;;;;;;4952465;28;20133;-45
2021/07/04 01:48:25;;;;;;;28.83;25.92;;;17.90;99.90;;;;;;4968408;28;20132;-46
2021/07/04 01:50:54;;;;;;;28.23;25.50;;;17.90;99.90;;;;;;4968438;28;20051;-46
2021/07/04 01:53:28;;;;;;;28.80;25.90;;;17.90;99.90;;;;;;4951564;28;20051;-44
2021/07/04 01:56:06;;;;;;;32.60;27.08;;;17.90;99.90;;;;;;4968660;28;20055;-44
2021/07/04 01:58:41;;;;;;;30.45;27.17;;;17.80;99.90;;;;;;4959447;28;20062;-45
2021/07/04 02:01:12;;;;;;;31.40;28.05;;;17.80;99.90;;;;;;4967755;28;20062;-47
2021/07/04 02:03:38;;;;;;;31.92;28.70;;;17.80;99.90;;;;;;4968769;28;20554;-46
2021/07/04 02:06:08;;;;;;;30.50;27.40;;;17.80;99.90;;;;;;4968236;28;20058;-48
2021/07/04 02:08:37;;;;;;;29.65;26.73;;;17.80;99.90;;;;;;4968057;28;20109;-47
2021/07/04 02:11:07;;;;;;;29.25;26.15;;;17.70;99.90;;;;;;4951586;28;20061;-47
2021/07/04 02:13:34;;;;;;;32.97;29.48;;;17.70;99.90;;;;;;4968728;28;20058;-48
2021/07/04 02:16:04;;;;;;;33.95;30.30;;;17.70;99.90;;;;;;4967154;28;20081;-47
2021/07/04 02:18:52;;;;;;;31.13;27.95;;;17.70;99.90;;;;;;4967745;28;20081;-45
2021/07/04 02:21:28;;;;;;;33.10;29.63;;;17.70;99.90;;;;;;4968898;28;20058;-50
2021/07/04 02:24:21;;;;;;;32.63;28.95;;;17.70;99.90;;;;;;4982231;28;20050;-45
2021/07/04 02:27:13;;;;;;;34.83;31.35;;;17.70;99.90;;;;;;4986393;28;20062;-47
2021/07/04 02:29:50;;;;;;;32.55;29.25;;;17.80;99.90;;;;;;4988654;28;20046;-47
2021/07/04 02:32:23;;;;;;;34.97;31.33;;;17.70;99.90;;;;;;4970518;28;20065;-46
2021/07/04 02:34:52;;;;;;;35.05;31.60;;;17.80;99.90;;;;;;4988627;28;20546;-46
2021/07/04 02:37:19;;;;;;;35.35;31.52;;;17.80;99.90;;;;;;4971152;28;20105;-46
2021/07/04 02:39:55;;;;;;;32.22;29.05;;;17.80;99.90;;;;;;4986736;28;20109;-47
2021/07/04 02:42:22;;;;;;;40.90;35.15;;;17.80;99.90;;;;;;4969929;28;20047;-46
2021/07/04 02:44:50;;;;;;;38.70;34.53;;;17.70;99.90;;;;;;4970154;28;20081;-46
2021/07/04 02:47:21;;;;;;;37.33;33.45;;;17.80;99.90;;;;;;4971439;28;20046;-49
2021/07/04 02:49:53;;;;;;;37.53;33.55;;;17.70;99.90;;;;;;4986838;28;20533;-45
2021/07/04 02:52:20;;;;;;;34.28;30.92;;;17.70;99.90;;;;;;4987836;28;20054;-47
2021/07/04 02:54:46;;;;;;;41.45;36.90;;;17.70;99.90;;;;;;4987806;28;20051;-45
2021/07/04 02:57:27;;;;;;;54.65;40.60;;;17.70;99.90;;;;;;4983919;28;20065;-45
2021/07/04 02:59:57;;;;;;;43.30;38.55;;;17.70;99.90;;;;;;4988239;28;20442;-47
2021/07/04 03:02:27;;;;;;;39.97;35.67;;;17.70;99.90;;;;;;4986632;28;20049;-48
2021/07/04 03:04:56;;;;;;;43.00;37.33;;;17.60;99.90;;;;;;4985913;28;20081;-44
2021/07/04 03:07:27;;;;;;;39.25;34.78;;;17.70;99.90;;;;;;4982562;28;20055;-45
2021/07/04 03:09:54;;;;;;;38.90;34.70;;;17.70;99.90;;;;;;4966868;28;20057;-46
2021/07/04 03:12:28;;;;;;;35.00;31.67;;;17.70;99.90;;;;;;4981055;28;20057;-46
2021/07/04 03:14:58;;;;;;;41.17;36.83;;;17.70;99.90;;;;;;4982677;28;20046;-46
2021/07/04 03:17:25;;;;;;;38.92;34.80;;;17.70;99.90;;;;;;4975476;28;20050;-46
2021/07/04 03:19:56;;;;;;;41.25;36.85;;;17.70;99.90;;;;;;4985755;28;20046;-47
2021/07/04 03:22:26;;;;;;;44.20;37.50;;;17.70;99.90;;;;;;4987092;28;20782;-46
2021/07/04 03:24:57;;;;;;;43.53;35.33;;;17.70;99.90;;;;;;4985468;28;20120;-46
2021/07/04 03:27:26;;;;;;;39.45;35.25;;;17.70;99.90;;;;;;4989877;28;20073;-46
2021/07/04 03:29:58;;;;;;;37.05;33.22;;;17.70;99.90;;;;;;4988116;28;20077;-46
2021/07/04 03:32:25;;;;;;;38.72;34.88;;;17.80;99.90;;;;;;4969773;28;20050;-46
2021/07/04 03:34:56;;;;;;;39.55;35.55;;;17.80;99.90;;;;;;4985531;28;20103;-45
2021/07/04 03:37:25;;;;;;;37.72;33.95;;;17.90;99.90;;;;;;4989575;28;20057;-46
2021/07/04 03:39:59;;;;;;;39.75;35.58;;;17.80;99.90;;;;;;4992608;28;20585;-46
2021/07/04 03:42:26;;;;;;;40.97;36.90;;;17.80;99.90;;;;;;4969770;28;20499;-45
2021/07/04 03:44:54;;;;;;;38.03;34.17;;;17.80;99.90;;;;;;4985662;28;20487;-46
2021/07/04 03:47:25;;;;;;;42.65;36.85;;;17.80;99.90;;;;;;4958301;28;20098;-46
2021/07/04 03:49:54;;;;;;;37.22;33.22;;;17.80;99.90;;;;;;4979279;28;20085;-44
2021/07/04 03:52:24;;;;;;;36.47;32.88;;;17.80;99.90;;;;;;4983489;28;20046;-45
2021/07/04 03:54:54;;;;;;;40.60;36.58;;;17.80;99.90;;;;;;4985631;28;20137;-47
2021/07/04 03:57:31;;;;;;;38.35;34.35;;;17.80;99.90;;;;;;4970568;28;20137;-47
2021/07/04 04:00:12;;;;;;;39.85;35.45;;;17.90;99.90;;;;;;4986969;28;20656;-46
2021/07/04 04:02:53;;;;;;;43.00;36.63;;;17.80;99.90;;;;;;4969404;28;20050;-44
2021/07/04 04:05:27;;;;;;;40.08;35.78;;;17.80;99.90;;;;;;4970296;28;20046;-48
2021/07/04 04:07:58;;;;;;;42.20;34.90;;;17.90;99.90;;;;;;4985368;28;20808;-47
2021/07/04 04:10:28;;;;;;;39.80;35.53;;;17.90;99.90;;;;;;4973366;28;20046;-46
2021/07/04 04:13:01;;;;;;;38.38;34.25;;;17.90;99.90;;;;;;4986301;28;20054;-47
2021/07/04 04:15:27;;;;;;;45.05;39.70;;;17.90;99.90;;;;;;4968546;28;20068;-46
2021/07/04 04:17:58;;;;;;;44.63;39.15;;;17.80;99.90;;;;;;4986920;28;20051;-47
2021/07/04 04:20:25;;;;;;;44.75;38.10;;;17.90;99.90;;;;;;4969309;28;20057;-50
2021/07/04 04:22:58;;;;;;;34.92;31.17;;;17.90;99.90;;;;;;4986218;28;20054;-45
2021/07/04 04:25:30;;;;;;;39.45;33.05;;;17.80;99.90;;;;;;4988937;28;20053;-46
2021/07/04 04:28:04;;;;;;;34.72;28.23;;;17.80;99.90;;;;;;4991557;28;20049;-48
2021/07/04 04:30:35;;;;;;;38.78;30.48;;;17.70;99.90;;;;;;5009070;28;20050;-46
2021/07/04 04:33:07;;;;;;;26.95;22.75;;;17.70;99.90;;;;;;4975851;28;20063;-44
2021/07/04 04:35:38;;;;;;;28.20;24.23;;;17.70;99.90;;;;;;4990647;28;20487;-44
2021/07/04 04:38:07;;;;;;;28.80;24.60;;;17.60;99.90;;;;;;4988580;28;20050;-47
2021/07/04 04:40:33;;;;;;;38.65;28.90;;;17.70;99.90;;;;;;4991915;28;20054;-45
2021/07/04 04:43:06;;;;;;;34.00;29.17;;;17.70;99.90;;;;;;4971205;28;20051;-45
2021/07/04 04:45:34;;;;;;;33.88;27.70;;;17.70;99.90;;;;;;4987503;28;20503;-47
2021/07/04 04:48:03;;;;;;;29.85;26.60;;;17.70;99.90;;;;;;4990139;28;20080;-45
2021/07/04 04:50:34;;;;;;;35.47;28.55;;;17.70;99.90;;;;;;4988942;28;20050;-45
2021/07/04 04:53:06;;;;;;;27.80;24.80;;;17.70;99.90;;;;;;4990400;28;20137;-46
2021/07/04 04:55:40;;;;;;;31.48;26.90;;;17.70;99.90;;;;;;4992105;28;20045;-46
2021/07/04 04:58:10;;;;;;;32.10;26.65;;;17.70;99.90;;;;;;4990577;28;20088;-44
2021/07/04 05:00:42;;;;;;;31.70;25.95;;;17.70;99.90;;;;;;4992517;28;20078;-46
2021/07/04 05:03:08;;;;;;;28.33;25.20;;;17.70;99.90;;;;;;5009851;28;20423;-46
2021/07/04 05:05:37;;;;;;;36.45;28.45;;;17.80;99.90;;;;;;5003048;28;20038;-45
2021/07/04 05:08:09;;;;;;;32.28;28.98;;;17.80;99.90;;;;;;4990467;28;20062;-44
2021/07/04 05:10:35;;;;;;;33.88;29.80;;;17.80;99.90;;;;;;4992447;28;20050;-47
2021/07/04 05:13:07;;;;;;;34.75;31.02;;;17.90;99.90;;;;;;5000986;28;20050;-45
2021/07/04 05:15:36;;;;;;;34.25;30.00;;;17.90;99.90;;;;;;4991888;28;20185;-46
2021/07/04 05:18:06;;;;;;;32.15;28.85;;;17.90;99.90;;;;;;4989549;28;20050;-49
2021/07/04 05:20:40;;;;;;;37.05;32.55;;;17.90;99.90;;;;;;4992060;28;20046;-45
2021/07/04 05:23:10;;;;;;;37.60;31.63;;;18.00;99.90;;;;;;5010040;28;20069;-47
2021/07/04 05:25:39;;;;;;;28.00;25.05;;;18.00;99.90;;;;;;5008279;28;20113;-48
2021/07/04 05:28:05;;;;;;;34.25;29.60;;;18.10;99.90;;;;;;4990150;28;20073;-46
2021/07/04 05:30:37;;;;;;;29.00;25.92;;;18.10;99.90;;;;;;4990530;28;20061;-47
2021/07/04 05:33:06;;;;;;;33.05;29.70;;;18.30;99.90;;;;;;4990582;28;20576;-47
2021/07/04 05:35:35;;;;;;;27.10;24.25;;;18.30;99.90;;;;;;4989644;28;20054;-50
2021/07/04 05:38:02;;;;;;;31.45;28.35;;;18.30;99.90;;;;;;4990558;28;20062;-48
2021/07/04 05:40:31;;;;;;;30.40;27.20;;;18.30;99.90;;;;;;4990804;28;20121;-46
2021/07/04 05:42:58;;;;;;;25.92;23.25;;;18.40;99.90;;;;;;4990120;28;20140;-47
2021/07/04 05:45:30;;;;;;;27.10;24.35;;;18.40;99.90;;;;;;4989421;28;20058;-50
2021/07/04 05:48:00;;;;;;;28.05;25.15;;;18.40;99.90;;;;;;4989763;28;20052;-49
2021/07/04 05:50:30;;;;;;;28.58;25.75;;;18.40;99.90;;;;;;4990667;28;20101;-49
2021/07/04 05:52:59;;;;;;;27.02;24.15;;;18.40;99.90;;;;;;4989844;28;20054;-47
2021/07/04 05:55:25;;;;;;;27.85;25.05;;;18.30;99.90;;;;;;4989551;28;20050;-47
2021/07/04 05:57:58;;;;;;;25.48;23.02;;;18.30;99.90;;;;;;4990071;28;20058;-50
2021/07/04 06:00:26;;;;;;;28.00;25.15;;;18.40;99.90;;;;;;4989734;28;20430;-50
2021/07/04 06:02:59;;;;;;;27.65;24.95;;;18.40;99.90;;;;;;4989706;28;20053;-48
2021/07/04 06:05:25;;;;;;;25.92;23.38;;;18.50;99.90;;;;;;4989657;28;20052;-48
2021/07/04 06:07:55;;;;;;;26.08;23.42;;;18.50;99.90;;;;;;4988963;28;20140;-48
2021/07/04 06:10:24;;;;;;;25.98;23.17;;;18.60;99.90;;;;;;4992226;28;20042;-48
2021/07/04 06:12:54;;;;;;;27.02;24.33;;;18.70;99.90;;;;;;4988194;28;20054;-48
2021/07/04 06:15:21;;;;;;;24.33;22.05;;;18.80;99.90;;;;;;4989443;28;20047;-51
2021/07/04 06:17:53;;;;;;;20.60;18.40;;;18.70;99.90;;;;;;4987733;28;20494;-50
2021/07/04 06:20:20;;;;;;;23.67;21.48;;;18.70;99.90;;;;;;4988446;28;20046;-49
2021/07/04 06:22:52;;;;;;;24.08;21.63;;;18.60;99.90;;;;;;4989024;28;20136;-48
2021/07/04 06:25:18;;;;;;;;;;;18.60;99.90;;;;;;4986439;28;20620;-49
2021/07/04 06:27:51;;;;;;;37.92;34.13;;;18.60;99.90;;;;;;4991170;28;20408;-48
2021/07/04 06:30:18;;;;;;;25.13;22.77;;;18.60;99.90;;;;;;4991562;28;20611;-48
2021/07/04 06:32:45;;;;;;;30.45;25.88;;;18.60;99.90;;;;;;4988683;28;20069;-52
2021/07/04 06:35:18;;;;;;;23.20;21.00;;;18.70;99.90;;;;;;4988624;28;20054;-50
2021/07/04 06:37:47;;;;;;;21.27;19.27;;;18.80;99.90;;;;;;4988178;28;20089;-49
2021/07/04 06:40:15;;;;;;;25.50;23.00;;;19.00;99.90;;;;;;4988506;28;20063;-49
2021/07/04 06:42:41;;;;;;;26.20;23.58;;;19.10;99.90;;;;;;4936013;28;20054;-50
2021/07/04 06:45:10;;;;;;;19.50;17.67;;;19.20;99.90;;;;;;4988098;28;20104;-49
2021/07/04 06:47:39;;;;;;;23.98;21.67;;;19.20;99.90;;;;;;4989290;28;20073;-51
2021/07/04 06:50:16;;;;;;;22.38;20.17;;;19.20;99.90;;;;;;4991627;28;20495;-50
2021/07/04 06:52:47;;;;;;;24.60;22.30;;;19.30;99.90;;;;;;4988669;28;20388;-51
2021/07/04 06:55:14;;;;;;;34.10;30.60;;;19.40;99.90;;;;;;4986655;28;20086;-51
2021/07/04 06:57:41;;;;;;;28.73;25.92;;;19.60;99.90;;;;;;4989115;28;20050;-51
2021/07/04 07:00:11;;;;;;;19.73;17.83;;;19.70;99.90;;;;;;4988104;28;20070;-48
2021/07/04 07:02:38;;;;;;;19.25;17.55;;;19.70;99.90;;;;;;4981934;28;20054;-50
2021/07/04 07:05:12;;;;;;;23.05;20.88;;;19.60;99.90;;;;;;4989066;28;20117;-49
2021/07/04 07:07:47;;;;;;;38.50;34.42;;;19.80;99.90;;;;;;4987495;28;20046;-50
2021/07/04 07:10:16;;;;;;;106.13;95.72;;;19.80;99.90;;;;;;4988134;28;20104;-51
2021/07/04 07:12:53;;;;;;;28.15;25.60;;;19.80;99.90;;;;;;4985631;28;20054;-50
2021/07/04 07:15:29;;;;;;;28.33;25.63;;;19.80;99.90;;;;;;4986947;28;20057;-49
2021/07/04 07:17:56;;;;;;;35.13;31.83;;;19.70;99.90;;;;;;4964173;28;20484;-58
2021/07/04 07:20:30;;;;;;;;;;;19.60;99.90;;;;;;4983995;28;20056;-58
2021/07/04 07:22:58;;;;;;;37.80;34.05;;;19.50;99.90;;;;;;4982820;28;19953;-57
2021/07/04 07:25:36;;;;;;;24.33;22.15;;;19.60;99.90;;;;;;4986882;28;20053;-46
2021/07/04 07:28:11;;;;;;;20.33;18.48;;;19.60;99.90;;;;;;4987498;28;20414;-46
2021/07/04 07:30:46;;;;;;;20.58;18.70;;;19.60;99.90;;;;;;4982310;28;20530;-47
2021/07/04 07:33:16;;;;;;;20.35;18.60;;;19.70;99.90;;;;;;4986151;28;20085;-47
2021/07/04 07:35:50;;;;;;;19.50;17.67;;;19.80;99.90;;;;;;4986006;28;20101;-47
2021/07/04 07:38:22;;;;;;;26.35;23.85;;;19.90;99.90;;;;;;4987559;28;20073;-46
2021/07/04 07:40:49;;;;;;;16.80;15.30;;;20.10;99.90;;;;;;4987973;28;20094;-44
2021/07/04 07:43:18;;;;;;;15.63;14.23;;;20.30;99.90;;;;;;4987786;28;20121;-46
2021/07/04 07:45:46;;;;;;;16.23;14.73;;;20.40;99.90;;;;;;4977801;28;20820;-44
2021/07/04 07:48:13;;;;;;;17.35;15.85;;;20.50;99.90;;;;;;4976328;28;20081;-44
2021/07/04 07:51:13;;;;;;;19.00;17.30;;;20.40;99.90;;;;;;4954373;28;20074;-44
2021/07/04 07:53:45;;;;;;;20.13;18.45;;;20.40;99.90;;;;;;4958001;28;20482;-44
2021/07/04 07:56:14;;;;;;;21.33;19.48;;;20.50;99.90;;;;;;4963272;28;20058;-44
2021/07/04 07:58:50;;;;;;;20.52;18.42;;;20.50;99.90;;;;;;4966931;28;20504;-46
2021/07/04 08:01:20;;;;;;;20.45;18.65;;;20.50;99.90;;;;;;4968190;28;20047;-47
2021/07/04 08:03:59;;;;;;;18.70;17.00;;;20.50;99.90;;;;;;4969589;28;20137;-44
2021/07/04 08:06:29;;;;;;;17.83;16.30;;;20.50;99.90;;;;;;4971367;28;20047;-45
2021/07/04 08:08:58;;;;;;;19.85;18.05;;;20.50;99.90;;;;;;4967973;28;20154;-45
2021/07/04 08:11:37;;;;;;;17.40;15.90;;;20.40;99.90;;;;;;4948331;28;20082;-46
2021/07/04 08:14:04;;;;;;;19.02;17.33;;;20.50;99.90;;;;;;4968927;28;20074;-45
2021/07/04 08:16:34;;;;;;;17.67;16.17;;;20.60;99.90;;;;;;4947584;28;20492;-44
2021/07/04 08:19:06;;;;;;;15.95;14.55;;;20.60;99.90;;;;;;4967556;28;20059;-46
2021/07/04 08:21:32;;;;;;;17.30;15.70;;;20.70;99.90;;;;;;4958128;28;20074;-45
2021/07/04 08:23:59;;;;;;;16.80;15.30;;;21.00;99.90;;;;;;4966844;28;20401;-44
2021/07/04 08:26:28;;;;;;;17.52;15.93;;;21.20;99.90;;;;;;4968593;28;20055;-47
2021/07/04 08:28:54;;;;;;;16.95;15.32;;;21.20;99.90;;;;;;4989566;28;20498;-45
2021/07/04 08:31:30;;;;;;;17.70;15.95;;;21.20;99.90;;;;;;4991370;28;20053;-46
2021/07/04 08:33:57;;;;;;;17.70;16.05;;;21.40;99.90;;;;;;4990263;28;20058;-44
2021/07/04 08:36:30;;;;;;;17.55;15.95;;;21.70;99.90;;;;;;4989734;28;20077;-45
2021/07/04 08:38:57;;;;;;;18.80;17.10;;;21.70;99.90;;;;;;4991470;28;20065;-45
2021/07/04 08:41:26;;;;;;;16.70;15.20;;;22.10;99.90;;;;;;4990337;28;20050;-45
2021/07/04 08:43:55;;;;;;;15.82;14.45;;;22.40;99.90;;;;;;4989143;28;20064;-46
2021/07/04 08:46:22;;;;;;;17.45;15.85;;;22.30;99.90;;;;;;4989085;28;20145;-46
2021/07/04 08:48:50;;;;;;;18.00;16.40;;;22.00;99.90;;;;;;4989944;28;20054;-46
2021/07/04 08:51:20;;;;;;;17.75;16.08;;;21.80;99.90;;;;;;4989130;28;20054;-45
2021/07/04 08:53:46;;;;;;;16.30;14.80;;;21.80;99.90;;;;;;4988370;28;20050;-45
2021/07/04 08:56:13;;;;;;;18.08;16.42;;;22.00;99.90;;;;;;4991515;28;20109;-44
2021/07/04 08:58:42;;;;;;;16.60;14.77;;;22.10;99.90;;;;;;4990116;28;20047;-50
2021/07/04 09:01:18;;;;;;;14.13;12.77;;;22.10;99.90;;;;;;4991766;28;20053;-45
2021/07/04 09:03:49;;;;;;;13.98;12.73;;;22.30;99.90;;;;;;4990469;28;20047;-44
2021/07/04 09:06:52;;;;;;;14.98;13.60;;;22.40;99.90;;;;;;4990337;28;20050;-44
2021/07/04 09:09:26;;;;;;;16.67;14.98;;;22.40;99.90;;;;;;4989518;28;20724;-45
2021/07/04 09:12:06;;;;;;;17.25;15.65;;;22.20;99.90;;;;;;4985765;28;20133;-44
2021/07/04 09:14:36;;;;;;;18.92;17.13;;;22.20;99.90;;;;;;4989235;28;20072;-43
2021/07/04 09:17:06;;;;;;;18.38;16.75;;;22.10;99.90;;;;;;4992800;28;20054;-46
2021/07/04 09:19:57;;;;;;;19.17;17.58;;;22.20;99.90;;;;;;4987305;28;20680;-45
2021/07/04 09:22:34;;;;;;;19.55;17.75;;;22.10;99.90;;;;;;4987824;28;20086;-46
2021/07/04 09:25:13;;;;;;;17.85;16.15;;;22.10;99.90;;;;;;4974276;28;20109;-48
2021/07/04 09:28:01;;;;;;;15.05;13.40;;;22.00;99.90;;;;;;4969752;28;20059;-44
2021/07/04 09:30:34;;;;;;;14.60;13.10;;;22.20;99.90;;;;;;4970229;28;20051;-48
2021/07/04 09:33:17;;;;;;;14.25;13.05;;;22.40;99.90;;;;;;4969043;28;20055;-45
2021/07/04 09:36:04;;;;;;;13.25;11.95;;;22.50;99.90;;;;;;4971010;28;20488;-44
2021/07/04 09:38:39;;;;;;;12.32;11.23;;;22.60;99.90;;;;;;4969594;28;20081;-44
2021/07/04 09:41:11;;;;;;;12.75;11.55;;;22.50;99.90;;;;;;4973306;28;20046;-44
2021/07/04 09:43:44;;;;;;;13.18;11.88;;;22.50;99.90;;;;;;4966632;28;20518;-44
2021/07/04 09:46:15;;;;;;;12.47;11.27;;;22.40;99.90;;;;;;4951078;28;20046;-49
2021/07/04 09:48:50;;;;;;;13.27;12.13;;;22.40;99.90;;;;;;4964964;28;20955;-45
2021/07/04 09:51:24;;;;;;;13.00;11.90;;;22.40;99.90;;;;;;4968691;28;20503;-43
2021/07/04 09:53:59;;;;;;;10.95;9.77;;;22.70;99.90;;;;;;4948596;28;20550;-44
2021/07/04 09:56:30;;;;;;;10.68;9.68;;;22.70;99.90;;;;;;4954929;28;20043;-43
2021/07/04 09:59:04;;;;;;;10.23;9.18;;;22.70;99.90;;;;;;4968832;28;20205;-50
2021/07/04 10:01:39;;;;;;;10.43;9.32;;;22.90;99.90;;;;;;4951973;28;20347;-44
2021/07/04 10:04:08;;;;;;;9.77;8.85;;;22.90;99.90;;;;;;4969741;28;20126;-43
2021/07/04 10:06:45;;;;;;;10.80;9.80;;;23.20;99.90;;;;;;4967961;28;20515;-44
2021/07/04 10:09:12;;;;;;;11.38;10.27;;;23.20;99.90;;;;;;4954413;28;20055;-43
2021/07/04 10:11:41;;;;;;;11.20;10.00;;;23.40;99.90;;;;;;4959830;28;20066;-43
2021/07/04 10:14:11;;;;;;;11.07;10.02;;;23.30;99.90;;;;;;4955828;28;20125;-43
2021/07/04 10:16:44;;;;;;;10.25;9.35;;;23.70;99.90;;;;;;4950471;28;20047;-45
2021/07/04 10:19:23;;;;;;;11.32;10.32;;;23.90;99.90;;;;;;4960830;28;20437;-44
2021/07/04 10:22:03;;;;;;;10.75;9.65;;;24.00;99.90;;;;;;4968609;28;20121;-43
2021/07/04 10:24:30;;;;;;;10.70;9.70;;;24.40;99.90;;;;;;4982093;28;20602;-43
2021/07/04 10:27:00;;;;;;;11.00;9.90;;;24.90;99.90;;;;;;4987300;28;20050;-46
2021/07/04 10:29:29;;;;;;;10.55;9.40;;;25.30;99.90;;;;;;4987855;28;20120;-43
2021/07/04 10:32:06;;;;;;;10.07;9.18;;;25.30;99.90;;;;;;4972560;28;20406;-44
2021/07/04 10:34:49;;;;;;;10.57;9.60;;;25.80;98.70;;;;;;4986690;28;20046;-45
2021/07/04 10:37:29;;;;;;;11.10;10.00;;;26.40;96.60;;;;;;4987363;28;20694;-42
2021/07/04 10:40:07;;;;;;;10.50;9.40;;;26.10;95.60;;;;;;4984536;28;20046;-43
2021/07/04 10:42:38;;;;;;;10.27;9.35;;;25.50;94.00;;;;;;4983055;28;20049;-44
2021/07/04 10:45:25;;;;;;;12.93;11.73;;;25.40;99.00;;;;;;4981222;28;20054;-43
2021/07/04 10:48:16;;;;;;;13.27;11.97;;;25.10;97.80;;;;;;4982559;28;20061;-48
2021/07/04 10:51:13;;;;;;;11.25;10.25;;;25.40;96.80;;;;;;4984746;28;20058;-44
2021/07/04 10:53:53;;;;;;;11.18;10.15;;;25.20;94.50;;;;;;4982535;28;20047;-43
2021/07/04 10:56:38;;;;;;;11.32;10.18;;;25.70;94.60;;;;;;4987737;28;20073;-46
2021/07/04 10:59:09;;;;;;;10.48;9.43;;;25.40;94.60;;;;;;4987161;28;20057;-44
2021/07/04 11:01:54;;;;;;;14.67;10.70;;;25.10;95.90;;;;;;4987507;28;20141;-44
2021/07/04 11:04:30;;;;;;;10.70;9.70;;;25.50;92.30;;;;;;4989637;28;20034;-43
2021/07/04 11:07:02;;;;;;;11.23;10.13;;;25.80;93.10;;;;;;4986194;28;20061;-44
2021/07/04 11:09:53;;;;;;;10.02;8.98;;;26.40;92.50;;;;;;4986693;28;20054;-43
2021/07/04 11:12:26;;;;;;;10.98;9.88;;;26.80;90.30;;;;;;4986434;28;20062;-42
2021/07/04 11:15:11;;;;;;;10.30;8.75;;;27.50;90.70;;;;;;4994625;28;20053;-43
2021/07/04 11:17:58;;;;;;;8.93;8.05;;;27.90;90.00;;;;;;4986841;28;20050;-43
2021/07/04 11:20:33;;;;;;;9.48;8.18;;;28.00;80.10;;;;;;4986143;28;20050;-44
2021/07/04 11:23:03;;;;;;;9.77;8.73;;;27.60;84.90;;;;;;4983869;28;20049;-44
2021/07/04 11:25:44;;;;;;;10.00;9.07;;;27.50;88.00;;;;;;4986888;28;20763;-42
2021/07/04 11:28:18;;;;;;;10.68;9.68;;;27.40;80.90;;;;;;4985970;28;20533;-43
2021/07/04 11:30:50;;;;;;;10.45;9.60;;;26.90;81.70;;;;;;4985853;28;20057;-44
2021/07/04 11:33:35;;;;;;;15.93;14.57;;;26.10;84.80;;;;;;4969685;28;20157;-44
2021/07/04 11:36:27;;;;;;;12.00;10.90;;;26.50;84.70;;;;;;4987987;28;20050;-46
2021/07/04 11:39:11;;;;;;;14.73;13.43;;;26.90;88.80;;;;;;4989661;28;20061;-46
2021/07/04 11:41:53;;;;;;;11.05;10.05;;;27.20;81.40;;;;;;4988027;28;20143;-45
2021/07/04 11:44:23;;;;;;;12.50;11.32;;;27.00;85.20;;;;;;4987104;28;20057;-44
2021/07/04 11:46:52;;;;;;;19.23;17.52;;;26.80;88.10;;;;;;4989920;28;20073;-45
2021/07/04 11:49:24;;;;;;;15.15;13.57;;;27.10;85.50;;;;;;4988286;28;20435;-46
2021/07/04 11:51:55;;;;;;;13.43;12.07;;;27.00;84.30;;;;;;4987981;28;20051;-43
2021/07/04 11:54:25;;;;;;;18.75;17.13;;;26.50;82.90;;;;;;4991561;28;20061;-44
2021/07/04 11:56:55;;;;;;;11.45;10.35;;;27.30;81.80;;;;;;4987745;28;20169;-43
2021/07/04 11:59:27;;;;;;;14.55;13.18;;;27.80;78.00;;;;;;4988387;28;20064;-43
2021/07/04 12:02:00;;;;;;;11.18;10.07;;;28.20;77.30;;;;;;4987900;28;20097;-44
2021/07/04 12:04:39;;;;;;;10.10;9.20;;;28.40;75.20;;;;;;4986922;28;20495;-44
2021/07/04 12:07:11;;;;;;;10.15;9.15;;;27.90;75.30;;;;;;4988184;28;20081;-43
2021/07/04 12:09:50;;;;;;;11.70;10.63;;;28.30;72.20;;;;;;4994211;28;20050;-43
2021/07/04 12:12:26;;;;;;;11.57;10.48;;;28.60;72.70;;;;;;5007963;28;20050;-43
2021/07/04 12:15:13;;;;;;;11.32;10.25;;;28.70;70.80;;;;;;4988888;28;20066;-43
2021/07/04 12:17:44;;;;;;;11.70;10.60;;;28.90;72.20;;;;;;4988630;28;20058;-43
2021/07/04 12:20:22;;;;;;;10.68;9.52;;;28.40;72.60;;;;;;4988252;28;20054;-43
2021/07/04 12:23:05;;;;;;;10.52;9.57;;;27.90;70.00;;;;;;4992250;28;20061;-43
2021/07/04 12:25:33;;;;;;;15.85;14.38;;;27.40;71.50;;;;;;4984545;28;20070;-43
2021/07/04 12:28:11;;;;;;;16.85;15.32;;;27.30;74.50;;;;;;4987907;28;20711;-45
2021/07/04 12:30:39;;;;;;;10.45;9.32;;;27.10;72.90;;;;;;4988049;28;20133;-43
2021/07/04 12:33:07;;;;;;;10.80;9.90;;;26.80;74.00;;;;;;4988070;28;20054;-41
2021/07/04 12:35:51;;;;;;;20.33;18.52;;;26.80;76.70;;;;;;4987153;28;20569;-43
2021/07/04 12:38:39;;;;;;;23.33;21.05;;;26.80;74.70;;;;;;4988299;28;20046;-41
2021/07/04 12:41:13;;;;;;;11.27;10.32;;;26.80;75.40;;;;;;4987391;28;20102;-41
2021/07/04 12:43:42;;;;;;;14.05;12.75;;;26.60;76.00;;;;;;4986615;28;20054;-40
2021/07/04 12:46:23;;;;;;;10.50;9.50;;;27.10;76.00;;;;;;4990418;28;20061;-45
2021/07/04 12:48:51;;;;;;;13.23;12.13;;;27.40;76.30;;;;;;4976433;28;20046;-45
2021/07/04 12:51:27;;;;;;;10.68;9.77;;;27.20;74.70;;;;;;4971952;28;20050;-43
2021/07/04 12:53:54;;;;;;;9.65;8.75;;;27.50;73.40;;;;;;4971797;28;20141;-46
2021/07/04 12:56:21;;;;;;;9.43;8.52;;;27.50;74.10;;;;;;4989272;28;20060;-44